createdAt,value
2023-05-06T00:00:49.849Z,96816.53
2023-05-06T00:15:53.975Z,96809.31
2023-05-06T00:20:45.687Z,96805.47
2023-05-06T00:25:37.412Z,96803.06
2023-05-06T00:30:39.101Z,96808.34
2023-05-06T00:35:35.992Z,96809.69
2023-05-06T00:45:35.184Z,96810.72
2023-05-06T00:50:30.215Z,96809.38
2023-05-06T00:55:22.298Z,96795.41
2023-05-06T01:00:14.375Z,96790.81
2023-05-06T01:05:07.592Z,96796.81
2023-05-06T01:10:27.893Z,96799.22
2023-05-06T01:20:56.464Z,96807.31
2023-05-06T01:25:48.356Z,96809.94
2023-05-06T01:31:11.738Z,96813.75
2023-05-06T01:42:10.422Z,96807.13
2023-05-06T01:47:02.762Z,96815.22
2023-05-06T01:51:55.700Z,96810.56
2023-05-06T01:56:47.396Z,96815.22
2023-05-06T02:01:39.099Z,96805.72
2023-05-06T02:06:30.828Z,96794.13
2023-05-06T02:11:23.756Z,96794.75
2023-05-06T02:16:15.853Z,96801.06
2023-05-06T02:21:11.999Z,96804.00
2023-05-06T02:26:04.314Z,96807.53
2023-05-06T02:30:59.372Z,96807.75
2023-05-06T02:35:51.809Z,96799.53
2023-05-06T02:40:43.495Z,96792.13
2023-05-06T02:45:35.251Z,96784.19
2023-05-06T02:50:27.067Z,96791.06
2023-05-06T02:55:19.405Z,96773.91
2023-05-06T03:00:12.704Z,96756.19
2023-05-06T03:05:04.910Z,96778.31
2023-05-06T03:09:56.688Z,96772.72
2023-05-06T03:14:48.379Z,96783.31
2023-05-06T03:19:40.089Z,96770.66
2023-05-06T03:24:31.813Z,96742.94
2023-05-06T03:29:23.571Z,96756.72
2023-05-06T03:34:15.257Z,96758.50
2023-05-06T03:39:07.182Z,96749.00
2023-05-06T03:43:58.848Z,96750.44
2023-05-06T03:48:54.212Z,96753.59
2023-05-06T03:53:46.527Z,96761.84
2023-05-06T03:58:38.203Z,96766.81
2023-05-06T04:03:30.229Z,96758.63
2023-05-06T04:08:22.016Z,96773.72
2023-05-06T04:13:13.790Z,96769.81
2023-05-06T04:18:08.305Z,96764.81
2023-05-06T04:23:00.300Z,96767.19
2023-05-06T04:27:52.066Z,96769.56
2023-05-06T04:32:43.731Z,96761.91
2023-05-06T04:37:35.426Z,96767.88
2023-05-06T04:42:27.316Z,96778.03
2023-05-06T04:47:19.173Z,96785.94
2023-05-06T04:52:18.663Z,96793.78
2023-05-06T04:57:10.399Z,96782.75
2023-05-06T05:02:02.108Z,96797.78
2023-05-06T05:06:53.850Z,96799.03
2023-05-06T05:11:45.531Z,96799.25
2023-05-06T05:16:37.489Z,96807.78
2023-05-06T05:21:29.319Z,96822.41
2023-05-06T05:26:20.990Z,96821.34
2023-05-06T05:31:12.765Z,96827.44
2023-05-06T05:36:05.233Z,96823.88
2023-05-06T05:40:57.031Z,96833.63
2023-05-06T05:45:48.706Z,96833.47
2023-05-06T05:50:40.384Z,96842.56
2023-05-06T05:55:32.123Z,96846.16
2023-05-06T06:56:42.969Z,96882.09
2023-05-06T07:01:34.989Z,96883.06
2023-05-06T07:06:27.216Z,96873.09
2023-05-06T07:16:25.252Z,96875.69
2023-05-06T07:21:18.619Z,96869.06
2023-05-06T07:26:11.253Z,96881.31
2023-05-06T07:31:03.108Z,96877.19
2023-05-06T07:35:55.227Z,96881.34
2023-05-06T07:40:47.716Z,96874.59
2023-05-06T07:45:40.540Z,96873.31
2023-05-06T07:50:34.489Z,96876.69
2023-05-06T08:41:52.749Z,96886.66
2023-05-06T08:51:54.624Z,96889.78
2023-05-06T08:56:53.561Z,96890.53
2023-05-06T09:01:45.310Z,96889.19
2023-05-06T09:06:37.019Z,96887.91
2023-05-06T09:11:37.998Z,96884.25
2023-05-06T09:26:46.456Z,96871.78
2023-05-06T09:31:46.265Z,96870.75
2023-05-06T09:41:44.749Z,96863.16
2023-05-06T09:51:47.715Z,96858.19
2023-05-06T09:56:39.896Z,96851.03
2023-05-06T10:27:31.154Z,96817.00
2023-05-06T10:32:29.222Z,96818.59
2023-05-06T11:03:32.269Z,96786.06
2023-05-06T11:13:43.670Z,96770.75
2023-05-06T11:39:21.472Z,96763.78
2023-05-06T11:55:05.773Z,96770.25
2023-05-06T11:59:59.465Z,96760.41
2023-05-06T12:05:00.213Z,96761.72
2023-05-06T15:26:14.655Z,96606.75
2023-05-06T15:41:19.565Z,96604.66
2023-05-06T15:56:39.365Z,96605.44
2023-05-06T16:16:57.254Z,96598.72
2023-05-06T16:26:57.188Z,96595.00
2023-05-06T17:58:46.405Z,96577.03
2023-05-06T18:08:49.135Z,96585.47
2023-05-06T18:13:42.106Z,96590.75
2023-05-06T18:18:34.483Z,96589.97
2023-05-06T18:28:36.502Z,96593.69
2023-05-06T19:04:15.062Z,96630.03
2023-05-06T19:09:09.335Z,96639.03
2023-05-06T20:41:17.508Z,96636.56
2023-05-06T20:46:11.201Z,96641.88
2023-05-06T20:51:03.689Z,96631.81
2023-05-06T20:55:56.831Z,96630.22
2023-05-06T21:11:06.060Z,96640.25
2023-05-06T21:26:25.348Z,96642.88
2023-05-06T21:46:53.576Z,96635.47
2023-05-06T22:27:54.135Z,96621.31
